Time;durP1;ratioP1;P1;durP2;ratioP2;P2;SDS_P1;SDS_P2;PMS_P1;PMS_P2;Temp;Humidity;BMP_temperature;BMP_pressure;BME280_temperature;BME280_humidity;BME280_pressure;Samples;Min_cycle;Max_cycle;Signal;HPM_P1;HPM_P2
2022/04/13 00:00:28;;;;;;;;;;;14.90;99.90;;;;;;5108011;28;19963;-71
2022/04/13 00:02:54;;;;;;;;;;;14.90;99.90;;;;;;5107882;28;20045;-71
2022/04/13 00:05:21;;;;;;;;;;;14.80;99.90;;;;;;5108210;28;20424;-71
2022/04/13 00:07:48;;;;;;;;;;;14.80;99.90;;;;;;5107427;28;20060;-71
2022/04/13 00:10:14;;;;;;;;;;;14.70;99.90;;;;;;5107341;28;20049;-71
2022/04/13 00:12:41;;;;;;;;;;;14.70;99.90;;;;;;5107772;28;20001;-71
2022/04/13 00:15:09;;;;;;;;;;;14.60;99.90;;;;;;5108047;28;20407;-71
2022/04/13 00:17:36;;;;;;;;;;;14.60;99.90;;;;;;5107268;28;19954;-71
2022/04/13 00:20:03;;;;;;;;;;;14.60;99.90;;;;;;5106406;28;19977;-71
2022/04/13 00:22:30;;;;;;;;;;;14.50;99.90;;;;;;5108145;28;19993;-71
2022/04/13 00:24:56;;;;;;;;;;;14.50;99.90;;;;;;5106902;28;19958;-71
2022/04/13 00:27:23;;;;;;;;;;;14.40;99.90;;;;;;5108012;28;20668;-71
2022/04/13 00:29:49;;;;;;;;;;;14.40;99.90;;;;;;5105773;28;19965;-71
2022/04/13 00:32:17;;;;;;;;;;;14.30;99.90;;;;;;5107564;28;19946;-71
2022/04/13 00:34:43;;;;;;;;;;;14.30;99.90;;;;;;5107282;28;20003;-71
2022/04/13 00:37:10;;;;;;;;;;;14.30;99.90;;;;;;5107590;28;19940;-71
2022/04/13 00:39:36;;;;;;;;;;;14.30;99.90;;;;;;5098629;28;20031;-70
2022/04/13 00:42:04;;;;;;;;;;;14.20;99.90;;;;;;5108390;28;19943;-69
2022/04/13 00:44:30;;;;;;;;;;;14.20;99.90;;;;;;5107781;28;19950;-71
2022/04/13 00:47:01;;;;;;;;;;;14.30;99.90;;;;;;5103502;28;19946;-71
2022/04/13 00:49:29;;;;;;;;;;;14.20;99.90;;;;;;5105988;28;20101;-72
2022/04/13 00:51:58;;;;;;;;;;;14.30;99.90;;;;;;5106839;28;20556;-70
2022/04/13 00:54:25;;;;;;;;;;;14.30;99.90;;;;;;5104649;28;20022;-71
2022/04/13 00:56:53;;;;;;;;;;;14.30;99.90;;;;;;5109096;28;19959;-71
2022/04/13 00:59:20;;;;;;;;;;;14.30;99.90;;;;;;5102959;28;19975;-72
2022/04/13 01:01:48;;;;;;;;;;;14.30;99.90;;;;;;5106391;28;19954;-72
2022/04/13 01:04:15;;;;;;;;;;;14.30;99.90;;;;;;5108234;28;19954;-69
2022/04/13 01:06:43;;;;;;;;;;;14.30;99.90;;;;;;5107521;28;20052;-69
2022/04/13 01:09:11;;;;;;;;;;;14.30;99.90;;;;;;5107078;28;20361;-70
2022/04/13 01:11:37;;;;;;;;;;;14.30;99.90;;;;;;5105883;28;19942;-71
2022/04/13 01:14:04;;;;;;;;;;;14.30;99.90;;;;;;5106538;28;19969;-71
2022/04/13 01:16:31;;;;;;;;;;;14.20;99.90;;;;;;5111425;28;19947;-71
2022/04/13 01:18:58;;;;;;;;;;;14.20;99.90;;;;;;5105961;28;20029;-71
2022/04/13 01:21:40;;;;;;;;;;;14.20;99.90;;;;;;5105393;28;19971;-71
2022/04/13 01:24:08;;;;;;;;;;;14.10;99.90;;;;;;5107516;28;19953;-71
2022/04/13 01:26:34;;;;;;;;;;;14.10;99.90;;;;;;5107761;28;20016;-71
2022/04/13 01:29:01;;;;;;;;;;;14.10;99.90;;;;;;5106047;28;19947;-72
2022/04/13 01:31:27;;;;;;;;;;;14.10;99.90;;;;;;5104139;28;19995;-71
2022/04/13 01:33:54;;;;;;;;;;;14.00;99.90;;;;;;5106309;28;20026;-71
2022/04/13 01:36:20;;;;;;;;;;;14.00;99.90;;;;;;5106614;28;20119;-71
2022/04/13 01:38:47;;;;;;;;;;;13.90;99.90;;;;;;5106988;28;19958;-70
2022/04/13 01:41:15;;;;;;;;;;;13.90;99.90;;;;;;5105972;28;19961;-70
2022/04/13 01:43:41;;;;;;;;;;;13.90;99.90;;;;;;5106561;28;20013;-71
2022/04/13 01:46:08;;;;;;;;;;;13.80;99.90;;;;;;5106248;28;19949;-71
2022/04/13 01:48:34;;;;;;;;;;;13.80;99.90;;;;;;5106402;28;20417;-70
2022/04/13 01:51:01;;;;;;;;;;;13.80;99.90;;;;;;5109744;28;19963;-71
2022/04/13 01:53:28;;;;;;;;;;;13.80;99.90;;;;;;5111005;28;19946;-70
2022/04/13 01:55:54;;;;;;;;;;;13.80;99.90;;;;;;5105884;28;20578;-70
2022/04/13 01:58:22;;;;;;;;;;;13.70;99.90;;;;;;5106717;28;19949;-69
2022/04/13 02:00:54;;;;;;;;;;;13.70;99.90;;;;;;5119533;22;20376;-68
2022/04/13 02:03:21;;;;;;;;;;;13.70;99.90;;;;;;5107015;28;19950;-69
2022/04/13 02:05:48;;;;;;;;;;;13.70;99.90;;;;;;5109327;28;20020;-68
2022/04/13 02:08:15;;;;;;;;;;;13.70;99.90;;;;;;5112673;27;20036;-69
2022/04/13 02:10:41;;;;;;;;;;;13.60;99.90;;;;;;5113770;28;19960;-69
2022/04/13 02:13:08;;;;;;;;;;;13.60;99.90;;;;;;5105078;28;19990;-67
2022/04/13 02:15:36;;;;;;;;;;;13.60;99.90;;;;;;5090106;28;19964;-68
2022/04/13 02:18:03;;;;;;;;;;;13.50;99.90;;;;;;5101191;28;20397;-68
2022/04/13 02:20:29;;;;;;;;;;;13.50;99.90;;;;;;5098800;28;19948;-67
2022/04/13 02:22:56;;;;;;;;;;;13.40;99.90;;;;;;5098759;28;20476;-68
2022/04/13 02:25:22;;;;;;;;;;;13.30;99.90;;;;;;5100979;28;19942;-67
2022/04/13 02:27:49;;;;;;;;;;;13.30;99.90;;;;;;5093020;28;19950;-65
2022/04/13 02:30:16;;;;;;;;;;;13.30;99.90;;;;;;5106006;28;19938;-68
2022/04/13 02:32:44;;;;;;;;;;;13.30;99.90;;;;;;5096572;28;20658;-67
2022/04/13 02:35:11;;;;;;;;;;;13.30;99.90;;;;;;5091714;28;19966;-67
2022/04/13 02:37:38;;;;;;;;;;;13.20;99.90;;;;;;5089678;28;19952;-69
2022/04/13 02:40:06;;;;;;;;;;;13.20;99.90;;;;;;5103834;28;19994;-68
2022/04/13 02:42:32;;;;;;;;;;;13.20;99.90;;;;;;5104884;28;20041;-68
2022/04/13 02:44:59;;;;;;;;;;;13.10;99.90;;;;;;5098400;28;19945;-66
2022/04/13 02:47:26;;;;;;;;;;;13.10;99.90;;;;;;5094556;28;20380;-68
2022/04/13 02:49:54;;;;;;;;;;;13.10;99.90;;;;;;5092217;28;20004;-67
2022/04/13 02:52:21;;;;;;;;;;;13.10;99.90;;;;;;5089700;28;19954;-67
2022/04/13 02:54:47;;;;;;;;;;;13.10;99.90;;;;;;5089136;28;20005;-67
2022/04/13 02:57:14;;;;;;;;;;;13.00;99.90;;;;;;5093191;28;19994;-69
2022/04/13 02:59:42;;;;;;;;;;;13.00;99.90;;;;;;5097850;28;20384;-68
2022/04/13 03:02:09;;;;;;;;;;;12.90;99.90;;;;;;5093099;28;20050;-67
2022/04/13 03:04:35;;;;;;;;;;;12.90;99.90;;;;;;5089619;28;20046;-67
2022/04/13 03:07:03;;;;;;;;;;;12.90;99.90;;;;;;5090889;28;20041;-67
2022/04/13 03:09:30;;;;;;;;;;;12.90;99.90;;;;;;5100297;28;19948;-66
2022/04/13 03:11:56;;;;;;;;;;;12.90;99.90;;;;;;5107773;28;19957;-68
2022/04/13 03:14:23;;;;;;;;;;;12.90;99.90;;;;;;5112201;28;19965;-66
2022/04/13 03:16:50;;;;;;;;;;;12.80;99.90;;;;;;5113141;28;19974;-67
2022/04/13 03:19:16;;;;;;;;;;;12.80;99.90;;;;;;5111194;28;19952;-67
2022/04/13 03:21:43;;;;;;;;;;;12.80;99.90;;;;;;5095594;28;20337;-66
2022/04/13 03:24:11;;;;;;;;;;;12.80;99.90;;;;;;5108894;28;19952;-67
2022/04/13 03:26:37;;;;;;;;;;;12.70;99.90;;;;;;5104936;28;19958;-68
2022/04/13 03:29:04;;;;;;;;;;;12.70;99.90;;;;;;5108886;28;19963;-68
2022/04/13 03:31:30;;;;;;;;;;;12.70;99.90;;;;;;5097769;28;19965;-67
2022/04/13 03:33:57;;;;;;;;;;;12.70;99.90;;;;;;5103815;28;19947;-67
2022/04/13 03:36:23;;;;;;;;;;;12.70;99.90;;;;;;5108030;28;20020;-67
2022/04/13 03:38:50;;;;;;;;;;;12.80;99.90;;;;;;5105686;28;19948;-66
2022/04/13 03:41:18;;;;;;;;;;;12.70;99.90;;;;;;5098414;28;20000;-68
2022/04/13 03:43:44;;;;;;;;;;;12.70;99.90;;;;;;5104564;28;20586;-66
2022/04/13 03:46:11;;;;;;;;;;;12.70;99.90;;;;;;5092714;28;20689;-67
2022/04/13 03:48:37;;;;;;;;;;;12.70;99.90;;;;;;5094789;28;19997;-68
2022/04/13 03:51:04;;;;;;;;;;;12.70;99.90;;;;;;5111054;28;19961;-67
2022/04/13 03:53:31;;;;;;;;;;;12.70;99.90;;;;;;5104222;28;20315;-67
2022/04/13 03:55:57;;;;;;;;;;;12.70;99.90;;;;;;5106781;28;20015;-68
2022/04/13 03:58:27;;;;;;;;;;;12.70;99.90;;;;;;5103815;28;20012;-67
2022/04/13 04:00:53;;;;;;;;;;;12.60;99.90;;;;;;5104287;28;19966;-68
2022/04/13 04:03:20;;;;;;;;;;;12.60;99.90;;;;;;5108744;28;19965;-67
2022/04/13 04:05:46;;;;;;;;;;;12.60;99.90;;;;;;5101926;28;19949;-67
2022/04/13 04:08:13;;;;;;;;;;;12.60;99.90;;;;;;5096572;28;20000;-67
2022/04/13 04:10:39;;;;;;;;;;;12.60;99.90;;;;;;5110664;28;19968;-68
2022/04/13 04:13:06;;;;;;;;;;;12.60;99.90;;;;;;5107584;28;20420;-69
2022/04/13 04:15:34;;;;;;;;;;;12.60;99.90;;;;;;5099787;28;19965;-66
2022/04/13 04:18:01;;;;;;;;;;;12.60;99.90;;;;;;5096602;28;20014;-67
2022/04/13 04:20:28;;;;;;;;;;;12.60;99.90;;;;;;5092707;28;19948;-68
2022/04/13 04:22:55;;;;;;;;;;;12.50;99.90;;;;;;5093622;28;20009;-68
2022/04/13 04:25:21;;;;;;;;;;;12.60;99.90;;;;;;5103376;28;20468;-67
2022/04/13 04:27:48;;;;;;;;;;;12.60;99.90;;;;;;5092673;28;19952;-68
2022/04/13 04:30:14;;;;;;;;;;;12.50;99.90;;;;;;5105988;28;19984;-67
2022/04/13 04:32:42;;;;;;;;;;;12.50;99.90;;;;;;5093743;28;19943;-66
2022/04/13 04:35:09;;;;;;;;;;;12.50;99.90;;;;;;5099866;28;19973;-67
2022/04/13 04:37:36;;;;;;;;;;;12.50;99.90;;;;;;5090879;28;19955;-68
2022/04/13 04:40:03;;;;;;;;;;;12.50;99.90;;;;;;5095069;28;19954;-68
2022/04/13 04:42:29;;;;;;;;;;;12.50;99.90;;;;;;5093948;28;19977;-68
2022/04/13 04:44:57;;;;;;;;;;;12.60;99.90;;;;;;5096429;28;19946;-66
2022/04/13 04:47:23;;;;;;;;;;;12.60;99.90;;;;;;5106793;28;20037;-68
2022/04/13 04:49:52;;;;;;;;;;;12.60;99.90;;;;;;5111100;28;19954;-67
2022/04/13 04:52:18;;;;;;;;;;;12.60;99.90;;;;;;5111981;28;20392;-66
2022/04/13 04:54:45;;;;;;;;;;;12.60;99.90;;;;;;5106581;28;19950;-69
2022/04/13 04:57:12;;;;;;;;;;;12.60;99.90;;;;;;5109095;28;19956;-67
2022/04/13 04:59:38;;;;;;;;;;;12.70;99.90;;;;;;5102159;28;19947;-67
2022/04/13 05:02:05;;;;;;;;;;;12.70;99.90;;;;;;5106829;28;19964;-67
2022/04/13 05:04:31;;;;;;;;;;;12.70;99.90;;;;;;5095582;28;19941;-67
2022/04/13 05:06:59;;;;;;;;;;;12.70;99.90;;;;;;5105031;28;20008;-62
2022/04/13 05:09:28;;;;;;;;;;;12.70;99.90;;;;;;5099098;28;19951;-63
2022/04/13 05:11:54;;;;;;;;;;;12.70;99.90;;;;;;5093660;28;20397;-63
2022/04/13 05:14:21;;;;;;;;;;;12.80;99.90;;;;;;5101425;28;20542;-68
2022/04/13 05:16:48;;;;;;;;;;;12.80;99.90;;;;;;5093550;28;20014;-67
2022/04/13 05:19:15;;;;;;;;;;;12.90;99.90;;;;;;5099461;28;19947;-68
2022/04/13 05:21:42;;;;;;;;;;;12.90;99.90;;;;;;5098678;28;20343;-69
2022/04/13 05:24:10;;;;;;;;;;;12.90;99.90;;;;;;5112607;28;19955;-67
2022/04/13 05:26:37;;;;;;;;;;;12.90;99.90;;;;;;5112961;28;19964;-67
2022/04/13 05:29:03;;;;;;;;;;;12.90;99.90;;;;;;5108651;28;20050;-67
2022/04/13 05:31:30;;;;;;;;;;;12.90;99.90;;;;;;5110367;28;20008;-68
2022/04/13 05:33:56;;;;;;;;;;;13.00;99.90;;;;;;5107774;28;19939;-68
2022/04/13 05:36:23;;;;;;;;;;;13.00;99.90;;;;;;5105356;28;20062;-67
2022/04/13 05:38:50;;;;;;;;;;;13.00;99.90;;;;;;5098414;28;20041;-67
2022/04/13 05:41:18;;;;;;;;;;;13.00;99.90;;;;;;5105970;28;20084;-68
2022/04/13 05:43:44;;;;;;;;;;;13.10;99.90;;;;;;5097628;28;19947;-68
2022/04/13 05:46:11;;;;;;;;;;;13.10;99.90;;;;;;5106350;28;20433;-66
2022/04/13 05:48:37;;;;;;;;;;;13.20;99.90;;;;;;5093532;28;20002;-68
2022/04/13 05:51:03;;;;;;;;;;;13.30;99.90;;;;;;5102176;28;19969;-68
2022/04/13 05:53:30;;;;;;;;;;;13.30;99.90;;;;;;5109999;28;19952;-70
2022/04/13 05:55:57;;;;;;;;;;;13.40;99.90;;;;;;5096202;28;20008;-68
2022/04/13 05:58:25;;;;;;;;;;;13.40;99.90;;;;;;5109749;28;19973;-67
2022/04/13 06:00:52;;;;;;;;;;;13.50;99.90;;;;;;5105070;28;19960;-68
2022/04/13 06:03:18;;;;;;;;;;;13.60;99.90;;;;;;5098313;28;19939;-68
2022/04/13 06:05:45;;;;;;;;;;;13.60;99.90;;;;;;5095772;28;19951;-68
2022/04/13 06:08:11;;;;;;;;;;;13.70;99.90;;;;;;5096365;28;19940;-70
2022/04/13 06:10:38;;;;;;;;;;;13.80;99.90;;;;;;5105121;28;19969;-68
2022/04/13 06:13:04;;;;;;;;;;;13.90;99.90;;;;;;5101392;28;19949;-68
2022/04/13 06:15:32;;;;;;;;;;;14.00;99.90;;;;;;5094802;28;20461;-67
2022/04/13 06:17:59;;;;;;;;;;;14.10;99.90;;;;;;5102158;28;19958;-67
2022/04/13 06:20:26;;;;;;;;;;;14.10;99.90;;;;;;5090258;28;19946;-66
2022/04/13 06:22:53;;;;;;;;;;;14.10;99.90;;;;;;5097399;28;19942;-68
2022/04/13 06:25:19;;;;;;;;;;;14.10;99.90;;;;;;5091609;28;19943;-70
2022/04/13 06:27:46;;;;;;;;;;;14.20;99.90;;;;;;5103648;28;19989;-67
2022/04/13 06:30:14;;;;;;;;;;;14.30;99.90;;;;;;5104903;28;20001;-68
2022/04/13 06:32:42;;;;;;;;;;;14.40;99.90;;;;;;5097626;28;19995;-67
2022/04/13 06:35:12;;;;;;;;;;;14.50;99.90;;;;;;5107639;28;19956;-69
2022/04/13 06:37:39;;;;;;;;;;;14.60;99.90;;;;;;5101387;28;19947;-67
2022/04/13 06:40:06;;;;;;;;;;;14.70;99.90;;;;;;5102985;28;19953;-67
2022/04/13 06:42:33;;;;;;;;;;;14.80;99.90;;;;;;5101417;28;19962;-68
2022/04/13 06:45:00;;;;;;;;;;;14.80;99.90;;;;;;5102682;28;19957;-67
2022/04/13 06:47:29;;;;;;;;;;;14.90;99.90;;;;;;5101241;28;19994;-67
2022/04/13 06:49:57;;;;;;;;;;;15.00;99.90;;;;;;5102492;28;19945;-69
2022/04/13 06:52:24;;;;;;;;;;;15.10;99.90;;;;;;5103275;28;20009;-69
2022/04/13 06:54:50;;;;;;;;;;;15.20;99.90;;;;;;5101371;28;19954;-68
2022/04/13 06:57:17;;;;;;;;;;;15.40;99.90;;;;;;5103439;28;19961;-68
2022/04/13 06:59:43;;;;;;;;;;;15.50;99.90;;;;;;5103654;28;19944;-69
2022/04/13 07:02:10;;;;;;;;;;;15.60;99.90;;;;;;5106430;28;19983;-69
2022/04/13 07:04:37;;;;;;;;;;;15.70;99.90;;;;;;5111434;28;20050;-69
2022/04/13 07:07:06;;;;;;;;;;;15.80;99.90;;;;;;5114386;28;19976;-69
2022/04/13 07:09:32;;;;;;;;;;;15.80;99.90;;;;;;5105596;28;19950;-68
2022/04/13 07:11:59;;;;;;;;;;;15.90;99.90;;;;;;5111403;28;19960;-68
2022/04/13 07:14:25;;;;;;;;;;;16.00;99.90;;;;;;5113225;28;19943;-68
2022/04/13 07:16:52;;;;;;;;;;;16.00;99.90;;;;;;5107370;28;20013;-67
2022/04/13 07:19:18;;;;;;;;;;;16.20;99.90;;;;;;5112608;28;20007;-68
2022/04/13 07:21:45;;;;;;;;;;;16.20;99.90;;;;;;5110465;28;20011;-68
2022/04/13 07:24:13;;;;;;;;;;;16.30;99.90;;;;;;5114156;28;19963;-67
2022/04/13 07:26:39;;;;;;;;;;;16.40;99.90;;;;;;5113997;28;19961;-67
2022/04/13 07:29:06;;;;;;;;;;;16.50;99.90;;;;;;5111940;28;20578;-68
2022/04/13 07:31:32;;;;;;;;;;;16.60;99.90;;;;;;5110410;28;19967;-68
2022/04/13 07:33:59;;;;;;;;;;;16.80;99.90;;;;;;5098204;28;20043;-67
2022/04/13 07:36:25;;;;;;;;;;;16.90;99.90;;;;;;5095507;28;19964;-67
2022/04/13 07:38:52;;;;;;;;;;;17.10;99.90;;;;;;5112178;28;20639;-66
2022/04/13 07:41:20;;;;;;;;;;;17.30;99.90;;;;;;5094088;28;19961;-70
2022/04/13 07:43:47;;;;;;;;;;;17.40;99.90;;;;;;5094640;28;19945;-68
2022/04/13 07:46:13;;;;;;;;;;;17.60;99.90;;;;;;5095311;28;20324;-68
2022/04/13 07:48:39;;;;;;;;;;;17.70;99.90;;;;;;5102321;28;20002;-67
2022/04/13 07:51:06;;;;;;;;;;;17.90;99.90;;;;;;5102078;28;20497;-67
2022/04/13 07:53:33;;;;;;;;;;;18.10;99.90;;;;;;5102524;28;19948;-71
2022/04/13 07:55:59;;;;;;;;;;;18.30;99.90;;;;;;5110776;28;19966;-69
2022/04/13 07:58:27;;;;;;;;;;;18.50;99.90;;;;;;5111514;28;19948;-67
2022/04/13 08:00:54;;;;;;;;;;;18.70;99.90;;;;;;5108971;28;20416;-68
2022/04/13 08:03:20;;;;;;;;;;;18.90;99.90;;;;;;5111321;28;19940;-67
2022/04/13 08:05:47;;;;;;;;;;;19.00;99.90;;;;;;5102329;28;20227;-68
2022/04/13 08:08:13;;;;;;;;;;;19.20;99.90;;;;;;5098108;28;19950;-67
2022/04/13 08:10:40;;;;;;;;;;;19.30;99.90;;;;;;5108691;28;19967;-68
2022/04/13 08:13:06;;;;;;;;;;;19.50;99.90;;;;;;5100164;28;20417;-69
2022/04/13 08:15:34;;;;;;;;;;;19.50;99.90;;;;;;5094949;28;19954;-68
2022/04/13 08:18:01;;;;;;;;;;;19.60;99.90;;;;;;5097693;28;19967;-68
2022/04/13 08:20:28;;;;;;;;;;;19.70;99.90;;;;;;5108030;28;20029;-68
2022/04/13 08:22:54;;;;;;;;;;;19.70;99.90;;;;;;5109674;28;19951;-69
2022/04/13 08:25:21;;;;;;;;;;;19.80;99.90;;;;;;5112652;28;19989;-67
2022/04/13 08:27:47;;;;;;;;;;;19.90;99.90;;;;;;5099705;28;19946;-67
2022/04/13 08:30:14;;;;;;;;;;;20.10;99.90;;;;;;5098233;28;20352;-68
2022/04/13 08:32:42;;;;;;;;;;;20.20;99.90;;;;;;5099748;28;19981;-68
2022/04/13 08:35:10;;;;;;;;;;;20.40;99.90;;;;;;5108140;28;19971;-68
2022/04/13 08:37:37;;;;;;;;;;;20.50;99.90;;;;;;5100883;28;20387;-68
2022/04/13 08:40:03;;;;;;;;;;;20.80;99.90;;;;;;5093076;28;19977;-69
2022/04/13 08:42:34;;;;;;;;;;;20.80;99.90;;;;;;5103867;28;19965;-70
2022/04/13 08:45:04;;;;;;;;;;;21.00;99.90;;;;;;5103638;28;19945;-67
2022/04/13 08:47:35;;;;;;;;;;;21.20;99.90;;;;;;5111214;28;19968;-69
2022/04/13 08:50:03;;;;;;;;;;;21.40;99.90;;;;;;5111365;28;19949;-69
2022/04/13 08:52:30;;;;;;;;;;;21.50;99.90;;;;;;5099195;28;19968;-69
2022/04/13 08:55:02;;;;;;;;;;;21.70;99.90;;;;;;5100272;28;20029;-69
2022/04/13 08:57:29;;;;;;;;;;;21.90;99.90;;;;;;5101078;28;19975;-69
2022/04/13 09:00:05;;;;;;;;;;;21.90;99.90;;;;;;5103523;28;19965;-69
2022/04/13 09:02:47;;;;;;;;;;;22.10;99.90;;;;;;5098746;28;20190;-69
2022/04/13 09:05:16;;;;;;;;;;;22.30;99.90;;;;;;5094294;28;20406;-69
2022/04/13 09:07:43;;;;;;;;;;;22.40;99.90;;;;;;5093557;28;20003;-67
2022/04/13 09:10:12;;;;;;;;;;;22.60;99.90;;;;;;5098930;28;20408;-68
2022/04/13 09:12:39;;;;;;;;;;;22.70;99.90;;;;;;5101210;28;20399;-68
2022/04/13 09:15:06;;;;;;;;;;;22.70;99.90;;;;;;5099096;28;20730;-68
2022/04/13 09:17:33;;;;;;;;;;;22.80;99.90;;;;;;5093589;28;20017;-70
2022/04/13 09:20:00;;;;;;;;;;;23.10;99.90;;;;;;5111888;28;20408;-69
2022/04/13 09:22:29;;;;;;;;;;;23.10;99.90;;;;;;5111567;28;19964;-69
2022/04/13 09:24:57;;;;;;;;;;;23.20;99.90;;;;;;5100992;28;19997;-68
2022/04/13 09:27:24;;;;;;;;;;;23.50;99.90;;;;;;5093459;28;19949;-70
2022/04/13 09:29:51;;;;;;;;;;;23.80;99.90;;;;;;5106700;28;19942;-68
2022/04/13 09:32:18;;;;;;;;;;;24.00;99.90;;;;;;5093743;28;20394;-67
2022/04/13 09:34:45;;;;;;;;;;;24.40;99.90;;;;;;5107697;28;19947;-69
2022/04/13 09:37:11;;;;;;;;;;;24.70;99.90;;;;;;5110146;28;19975;-69
2022/04/13 09:39:41;;;;;;;;;;;24.70;99.90;;;;;;5107866;28;19979;-69
2022/04/13 09:42:08;;;;;;;;;;;24.70;99.90;;;;;;5093562;28;19974;-67
2022/04/13 09:44:34;;;;;;;;;;;25.00;99.90;;;;;;5092176;28;20047;-66
2022/04/13 09:47:07;;;;;;;;;;;25.20;99.90;;;;;;5106938;28;20003;-65
2022/04/13 09:49:34;;;;;;;;;;;25.40;99.90;;;;;;5109233;28;20370;-65
2022/04/13 09:52:01;;;;;;;;;;;25.60;99.90;;;;;;5100249;28;19969;-69
2022/04/13 09:54:28;;;;;;;;;;;25.70;99.90;;;;;;5095717;28;19959;-69
2022/04/13 09:56:55;;;;;;;;;;;25.80;99.90;;;;;;5091091;28;19966;-69
2022/04/13 09:59:26;;;;;;;;;;;25.80;99.90;;;;;;5096988;28;19954;-69
2022/04/13 10:01:52;;;;;;;;;;;25.60;99.90;;;;;;5092783;28;19966;-69
2022/04/13 10:04:25;;;;;;;;;;;25.70;99.90;;;;;;5089717;28;19955;-69
2022/04/13 10:06:52;;;;;;;;;;;25.80;99.90;;;;;;5089767;28;19946;-69
2022/04/13 10:09:19;;;;;;;;;;;25.50;99.90;;;;;;5090764;28;19955;-69
2022/04/13 10:11:59;;;;;;;;;;;25.30;99.90;;;;;;5096884;28;19967;-69
2022/04/13 10:14:25;;;;;;;;;;;24.90;99.90;;;;;;5102151;28;20364;-69
2022/04/13 10:16:52;;;;;;;;;;;24.50;99.90;;;;;;5093430;28;19991;-69
2022/04/13 10:19:19;;;;;;;;;;;24.10;99.90;;;;;;5096176;28;19950;-69
2022/04/13 10:21:47;;;;;;;;;;;23.70;99.90;;;;;;5088511;28;20411;-70
2022/04/13 10:24:23;;;;;;;;;;;23.50;99.90;;;;;;5096542;28;19957;-69
2022/04/13 10:26:59;;;;;;;;;;;23.50;99.90;;;;;;5100689;28;19952;-69
2022/04/13 10:29:28;;;;;;;;;;;23.70;99.90;;;;;;5102113;28;19948;-68
2022/04/13 10:32:12;;;;;;;;;;;23.90;99.90;;;;;;5093584;28;19965;-70
2022/04/13 10:34:39;;;;;;;;;;;24.20;99.90;;;;;;5108322;28;20489;-70
2022/04/13 10:37:06;;;;;;;;;;;24.40;99.90;;;;;;5105377;28;19963;-70
2022/04/13 10:39:33;;;;;;;;;;;24.60;99.90;;;;;;5103811;28;19954;-69
2022/04/13 10:41:59;;;;;;;;;;;24.40;99.90;;;;;;5093715;28;19963;-69
2022/04/13 10:44:33;;;;;;;;;;;24.50;99.90;;;;;;5108194;28;20004;-69
2022/04/13 10:47:02;;;;;;;;;;;24.40;99.90;;;;;;5105246;28;19949;-69
2022/04/13 10:49:29;;;;;;;;;;;24.50;99.90;;;;;;5102963;28;19956;-70
2022/04/13 10:52:00;;;;;;;;;;;24.40;99.90;;;;;;5089494;28;19964;-70
2022/04/13 10:54:27;;;;;;;;;;;24.20;99.90;;;;;;5095180;28;20332;-69
2022/04/13 10:56:56;;;;;;;;;;;24.30;99.90;;;;;;5099518;28;19960;-70
2022/04/13 10:59:25;;;;;;;;;;;24.60;99.90;;;;;;5100682;28;19951;-70
2022/04/13 11:01:54;;;;;;;;;;;24.90;99.90;;;;;;5100855;28;20438;-70
2022/04/13 11:04:21;;;;;;;;;;;25.30;99.90;;;;;;5107611;28;19958;-70
2022/04/13 11:06:48;;;;;;;;;;;25.50;99.90;;;;;;5092275;28;20368;-70
2022/04/13 11:09:20;;;;;;;;;;;25.70;99.90;;;;;;5093101;28;19973;-70
2022/04/13 11:11:47;;;;;;;;;;;26.10;99.90;;;;;;5103946;28;19962;-70
2022/04/13 11:14:18;;;;;;;;;;;26.50;99.90;;;;;;5093434;28;19952;-69
2022/04/13 11:16:44;;;;;;;;;;;27.00;99.90;;;;;;5106395;28;20683;-71
2022/04/13 11:19:22;;;;;;;;;;;27.10;99.90;;;;;;5091789;28;19989;-70
2022/04/13 11:22:07;;;;;;;;;;;26.90;99.90;;;;;;5088485;28;19964;-70
2022/04/13 11:24:34;;;;;;;;;;;26.70;99.90;;;;;;5089327;28;20383;-70
2022/04/13 11:27:01;;;;;;;;;;;26.70;99.90;;;;;;5103572;28;19974;-69
2022/04/13 11:29:33;;;;;;;;;;;26.40;99.90;;;;;;5096181;28;19949;-70
2022/04/13 11:32:09;;;;;;;;;;;26.10;99.90;;;;;;5097504;28;19989;-71
2022/04/13 11:34:38;;;;;;;;;;;25.70;99.90;;;;;;5102366;28;20048;-70
2022/04/13 11:37:05;;;;;;;;;;;25.30;99.90;;;;;;5107361;28;20012;-71
2022/04/13 11:39:44;;;;;;;;;;;25.10;99.90;;;;;;5099273;28;19948;-69
2022/04/13 11:42:14;;;;;;;;;;;24.90;99.90;;;;;;5108870;28;19959;-71
2022/04/13 11:44:47;;;;;;;;;;;24.90;99.90;;;;;;5098633;28;19959;-70
2022/04/13 11:47:14;;;;;;;;;;;24.90;99.90;;;;;;5104815;28;19956;-71
2022/04/13 11:49:54;;;;;;;;;;;24.90;99.90;;;;;;5097089;28;20070;-71
2022/04/13 11:52:35;;;;;;;;;;;25.10;99.90;;;;;;5100965;28;19961;-70
2022/04/13 11:55:01;;;;;;;;;;;25.10;99.90;;;;;;5099837;28;19947;-72
2022/04/13 11:57:51;;;;;;;;;;;25.30;99.90;;;;;;5102436;28;19966;-70
2022/04/13 12:00:32;;;;;;;;;;;26.70;99.90;;;;;;5101131;28;19955;-70
2022/04/13 12:02:59;;;;;;;;;;;28.40;99.90;;;;;;5104395;28;20370;-70
2022/04/13 12:05:28;;;;;;;;;;;28.80;99.90;;;;;;5092083;28;20001;-62
2022/04/13 12:07:54;;;;;;;;;;;28.40;99.90;;;;;;5103924;28;19947;-63
2022/04/13 12:10:24;;;;;;;;;;;27.90;99.90;;;;;;5102106;28;19939;-62
2022/04/13 12:12:51;;;;;;;;;;;27.60;99.90;;;;;;5104317;28;20654;-63
2022/04/13 12:15:18;;;;;;;;;;;27.90;99.90;;;;;;5104627;28;19955;-63
2022/04/13 12:17:44;;;;;;;;;;;28.20;99.90;;;;;;5101736;28;20009;-63
2022/04/13 12:20:28;;;;;;;;;;;28.00;99.90;;;;;;5110626;28;19951;-63
2022/04/13 12:22:56;;;;;;;;;;;27.40;99.90;;;;;;5100133;28;20471;-63
2022/04/13 12:25:23;;;;;;;;;;;27.10;99.90;;;;;;5099456;28;19986;-70
2022/04/13 12:28:05;;;;;;;;;;;26.80;99.90;;;;;;5092635;28;19996;-70
2022/04/13 12:30:32;;;;;;;;;;;27.30;99.90;;;;;;5099448;28;19996;-70
2022/04/13 12:32:58;;;;;;;;;;;28.00;99.90;;;;;;5097681;28;19941;-71
2022/04/13 12:35:25;;;;;;;;;;;28.80;99.90;;;;;;5104561;28;19953;-70
2022/04/13 12:37:52;;;;;;;;;;;29.90;99.10;;;;;;5091500;28;20034;-70
2022/04/13 12:40:22;;;;;;;;;;;30.60;98.20;;;;;;5101906;28;19957;-71
2022/04/13 12:42:48;;;;;;;;;;;31.20;96.90;;;;;;5104263;28;19937;-70
2022/04/13 12:45:15;;;;;;;;;;;31.20;96.40;;;;;;5098193;28;19947;-70
2022/04/13 12:47:45;;;;;;;;;;;30.70;96.30;;;;;;5101606;28;19949;-70
2022/04/13 12:50:12;;;;;;;;;;;29.80;96.50;;;;;;5102876;28;19946;-70
2022/04/13 12:52:38;;;;;;;;;;;29.20;97.00;;;;;;5110392;28;20319;-68
2022/04/13 12:55:05;;;;;;;;;;;28.60;97.70;;;;;;5106176;28;19944;-71
2022/04/13 12:57:33;;;;;;;;;;;28.20;97.60;;;;;;5100946;28;19970;-70
2022/04/13 13:00:01;;;;;;;;;;;27.90;97.90;;;;;;5105344;28;20420;-71
2022/04/13 13:02:27;;;;;;;;;;;27.60;97.70;;;;;;5091133;28;19969;-70
2022/04/13 13:04:54;;;;;;;;;;;27.10;98.20;;;;;;5090553;28;19950;-70
2022/04/13 13:07:29;;;;;;;;;;;26.70;98.30;;;;;;5096058;28;20412;-70
2022/04/13 13:09:56;;;;;;;;;;;26.50;99.10;;;;;;5106174;28;20030;-70
2022/04/13 13:12:25;;;;;;;;;;;26.40;98.50;;;;;;5110328;28;19964;-71
2022/04/13 13:14:53;;;;;;;;;;;26.40;98.50;;;;;;5109014;28;19950;-70
2022/04/13 13:17:20;;;;;;;;;;;26.50;97.90;;;;;;5099937;28;20314;-70
2022/04/13 13:19:48;;;;;;;;;;;26.60;98.50;;;;;;5110118;28;19955;-70
2022/04/13 13:22:15;;;;;;;;;;;26.80;98.40;;;;;;5091716;28;19965;-70
2022/04/13 13:24:49;;;;;;;;;;;27.10;98.10;;;;;;5092751;28;19950;-70
2022/04/13 13:27:20;;;;;;;;;;;27.50;98.10;;;;;;5097978;28;20026;-69
2022/04/13 13:29:48;;;;;;;;;;;27.80;97.60;;;;;;5098474;28;19999;-70
2022/04/13 13:32:17;;;;;;;;;;;27.40;97.20;;;;;;5100410;28;20552;-70
2022/04/13 13:34:48;;;;;;;;;;;27.20;97.70;;;;;;5100651;28;19999;-71
2022/04/13 13:37:27;;;;;;;;;;;26.90;96.80;;;;;;5092439;28;19941;-70
2022/04/13 13:39:53;;;;;;;;;;;26.60;97.30;;;;;;5102880;28;19952;-71
2022/04/13 13:42:20;;;;;;;;;;;26.10;97.30;;;;;;5110622;28;20409;-71
2022/04/13 13:44:46;;;;;;;;;;;25.90;98.30;;;;;;5110371;28;20491;-71
2022/04/13 13:47:13;;;;;;;;;;;25.70;98.60;;;;;;5097604;28;19960;-70
2022/04/13 13:49:41;;;;;;;;;;;25.60;99.40;;;;;;5106367;28;19953;-69
2022/04/13 13:52:07;;;;;;;;;;;25.50;99.70;;;;;;5090816;28;19982;-70
2022/04/13 13:54:35;;;;;;;;;;;25.30;99.90;;;;;;5102034;28;20002;-70
2022/04/13 13:57:02;;;;;;;;;;;24.80;99.90;;;;;;5088864;28;20563;-70
2022/04/13 13:59:28;;;;;;;;;;;24.50;99.90;;;;;;5096007;28;20018;-70
2022/04/13 14:01:56;;;;;;;;;;;24.30;99.90;;;;;;5096079;28;19977;-70
2022/04/13 14:04:22;;;;;;;;;;;24.40;99.90;;;;;;5095614;28;19944;-69
2022/04/13 14:06:50;;;;;;;;;;;24.50;99.90;;;;;;5090165;28;19949;-70
2022/04/13 14:09:17;;;;;;;;;;;24.60;99.90;;;;;;5092192;28;19939;-70
2022/04/13 14:11:43;;;;;;;;;;;24.50;99.90;;;;;;5106952;28;20033;-70
2022/04/13 14:14:10;;;;;;;;;;;24.60;99.90;;;;;;5097363;28;20043;-71
2022/04/13 14:16:36;;;;;;;;;;;24.70;99.90;;;;;;5094637;28;19956;-72
2022/04/13 14:19:03;;;;;;;;;;;24.60;99.90;;;;;;5097425;28;20003;-71